KDAB/DAB METAR and TAF weather

Enter ICAO airport designator
Station Type Date Time Source
KDAB METAR 2021/04/13 07:53 UTC NOAA

KDAB 130753Z 26003KT 10SM CLR 14/12 A2996 RMK AO2 SLP144 T01390117


Station Type Date Time Source
KDAB Decoded METAR 2021/04/13 07:53 UTC NOAA

DAYTONA BEACH INTERNATIONAL, FL, United States (KDAB) 29-10N 81-04W 9M
Apr 13, 2021 - 03:53 AM EDT / 2021.04.13 0753 UTC
Wind: from the W (260 degrees) at 3 MPH (3 KT):0
Visibility: 10 mile(s):0
Sky conditions: clear
Temperature: 57.0 F (13.9 C)
Dew Point: 53.1 F (11.7 C)
Relative Humidity: 86%
Pressure (altimeter): 29.96 in. Hg (1014 hPa)
ob: KDAB 130753Z 26003KT 10SM CLR 14/12 A2996 RMK AO2 SLP144 T01390117
cycle: 8

Station Type Date Time Source
KDAB TAF 2021/04/13 06:46 UTC NOAA

TAF KDAB 130538Z 1306/1406 VRB05KT P6SM FEW300
FM131430 36010KT P6SM FEW300
FM131700 03011KT P6SM FEW300
FM132000 06010KT P6SM FEW300
FM140100 VRB04KT P6SM SCT250

Example: see airport list